M I D A S
Marine Information and Data Acquisition System
Tripno 841 of the Zeeleeuw from 2005-01-25 07:31:36 to 2005-01-25 16:34:44
Back to CruiseResearch ActivitiesStationsMapUnderway DataData graphs

EquipmentUnitsComment
TimeDGPSUTC
LatitudeDGPSDM.mWGS84
LongitudeDGPSDM.mWGS84
HeadingGyrodeg 
SOGDGPSknotsSpeed over ground
COGDGPSdegCourse over ground
DepthEcho soundermeters200 kHz
Missing or incorrect values are displayed as -999
Navigation data collected by the RV Zeeleeuw from 2005-01-25 07:32:50 to 2005-01-25 16:45:10
                                                                                    Next 1000 lines
Time Latitude Longitude Heading SOG COG Depth
2005-01-25 07:33:00 51°13.595 2°56.098 115.7 1.2 296 6.4
2005-01-25 07:33:05 51°13.596 2°56.094 115.8 1.5 295 6.4
2005-01-25 07:33:11 51°13.597 2°56.09 116 1.7 295 6.4
2005-01-25 07:33:16 51°13.599 2°56.086 116.1 1.9 295 -999
2005-01-25 07:33:21 51°13.6 2°56.081 116.4 2.2 295 -999
2005-01-25 07:33:27 51°13.602 2°56.076 116.8 2.4 295 -999
2005-01-25 07:33:31 51°13.603 2°56.071 117 2.5 295 -999
2005-01-25 07:33:36 51°13.605 2°56.066 117.2 2.5 295 -999
2005-01-25 07:33:41 51°13.606 2°56.06 117.3 2.5 295 -999
2005-01-25 07:33:45 51°13.608 2°56.056 117.5 2.9 294 -999
2005-01-25 07:33:51 51°13.609 2°56.049 117.9 2.9 294 -999
2005-01-25 07:33:56 51°13.611 2°56.043 118.5 2.9 294 -999
2005-01-25 07:34:01 51°13.613 2°56.036 119.2 3.2 294 -999
2005-01-25 07:34:07 51°13.615 2°56.029 120.4 3.3 295 -999
2005-01-25 07:34:11 51°13.617 2°56.023 121.4 3.4 295 -999
2005-01-25 07:34:16 51°13.619 2°56.016 122.1 3.4 295 -999
2005-01-25 07:34:21 51°13.621 2°56.009 123 3.4 295 -999
2005-01-25 07:34:25 51°13.623 2°56.003 123.9 3.7 299 -999
2005-01-25 07:34:32 51°13.627 2°55.994 124.5 3.7 299 -999
2005-01-25 07:34:36 51°13.63 2°55.987 124.9 3.8 299 5.2
2005-01-25 07:34:41 51°13.633 2°55.98 125.5 3.8 300 -999
2005-01-25 07:34:45 51°13.635 2°55.974 126.2 3.9 301 -999
2005-01-25 07:34:51 51°13.639 2°55.965 126.8 3.9 301 -999
2005-01-25 07:34:56 51°13.641 2°55.957 127.5 3.9 301 -999
2005-01-25 07:35:01 51°13.644 2°55.95 127.9 3.9 301 -999
2005-01-25 07:35:05 51°13.646 2°55.944 128.4 4.2 304 -999
2005-01-25 07:35:11 51°13.651 2°55.935 128.6 4.3 305 -999
2005-01-25 07:35:17 51°13.655 2°55.926 128.8 4.3 305 -999
2005-01-25 07:35:21 51°13.659 2°55.919 128.9 4.4 306 -999
2005-01-25 07:35:26 51°13.663 2°55.91 129 4.4 306 -999
2005-01-25 07:35:31 51°13.666 2°55.902 128.8 4.4 306 -999
2005-01-25 07:35:36 51°13.669 2°55.895 128.3 4.5 305 -999
2005-01-25 07:35:41 51°13.673 2°55.887 127.5 4.5 305 -999
2005-01-25 07:35:46 51°13.676 2°55.878 127 4.4 304 -999
2005-01-25 07:35:52 51°13.68 2°55.87 126.1 4.4 304 -999
2005-01-25 07:35:56 51°13.683 2°55.862 125.1 4.3 303 -999
2005-01-25 07:36:01 51°13.686 2°55.854 124 4.3 303 -999
2005-01-25 07:36:05 51°13.688 2°55.848 122.7 4.3 300 -999
2005-01-25 07:36:11 51°13.692 2°55.838 121.2 4.3 300 -999
2005-01-25 07:36:16 51°13.694 2°55.83 119.4 4.5 297 -999
2005-01-25 07:36:21 51°13.698 2°55.82 117.6 4.6 296 -999
2005-01-25 07:36:26 51°13.7 2°55.811 115.8 4.6 296 -999
2005-01-25 07:36:31 51°13.703 2°55.8 113.8 4.7 292 -999
2005-01-25 07:36:36 51°13.705 2°55.791 111.7 4.8 290 -999
2005-01-25 07:36:41 51°13.707 2°55.78 109.9 4.8 290 -999
2005-01-25 07:36:46 51°13.709 2°55.77 107.7 4.8 286 -999
2005-01-25 07:36:51 51°13.71 2°55.76 105.6 4.7 284 -999
2005-01-25 07:36:56 51°13.712 2°55.752 103.5 4.4 282 -999
2005-01-25 07:37:01 51°13.713 2°55.742 102.4 4.4 282 -999
2005-01-25 07:37:05 51°13.714 2°55.736 101.4 3.6 282 -999
2005-01-25 07:37:11 51°13.715 2°55.729 99.6 3.3 281 4.9
2005-01-25 07:37:16 51°13.715 2°55.726 97.5 3.3 281 10.5
2005-01-25 07:37:20 51°13.716 2°55.723 95.1 3.3 281 10.3
2005-01-25 07:37:25 51°13.716 2°55.722 91.8 3.3 281 10.3
2005-01-25 07:37:30 51°13.716 2°55.722 86.7 0.4 309 10.3
2005-01-25 07:37:36 51°13.716 2°55.724 82.7 0.4 12 10.3
2005-01-25 07:37:41 51°13.718 2°55.726 77.1 1 51 10.2
2005-01-25 07:37:45 51°13.719 2°55.728 70.8 1.4 49 10.1
2005-01-25 07:37:51 51°13.721 2°55.732 64.1 1.7 49 10.1
2005-01-25 07:37:56 51°13.723 2°55.734 57.5 1.7 49 10
2005-01-25 07:38:00 51°13.724 2°55.735 51.1 1.7 49 9.9
2005-01-25 07:38:05 51°13.725 2°55.736 47.1 1.7 49 9.8
2005-01-25 07:38:11 51°13.725 2°55.735 43.7 0.2 9 9.9
2005-01-25 07:38:16 51°13.725 2°55.734 40.3 0.2 9 9.9
2005-01-25 07:38:20 51°13.723 2°55.733 37.6 0.7 223 9.9
2005-01-25 07:38:26 51°13.722 2°55.73 35.5 0.7 223 9.9
2005-01-25 07:38:31 51°13.719 2°55.728 34.1 1.9 214 10
2005-01-25 07:38:36 51°13.717 2°55.725 33 1.9 214 -999
2005-01-25 07:38:41 51°13.715 2°55.724 31.9 1.7 214 -999
2005-01-25 07:38:47 51°13.714 2°55.722 31.2 1.7 214 -999
2005-01-25 07:38:51 51°13.714 2°55.722 29.2 0.2 233 -999
2005-01-25 07:38:56 51°13.715 2°55.723 24.7 0.8 4 -999
2005-01-25 07:39:01 51°13.717 2°55.723 18.8 0.8 4 -999
2005-01-25 07:39:06 51°13.72 2°55.722 11.7 1.5 3 -999
2005-01-25 07:39:11 51°13.724 2°55.721 3.7 1.5 3 -999
2005-01-25 07:39:17 51°13.729 2°55.719 355.6 1.5 3 -999
2005-01-25 07:39:21 51°13.733 2°55.716 347.7 1.5 3 -999
2005-01-25 07:39:25 51°13.737 2°55.713 340.8 3.8 337 9.7
2005-01-25 07:39:31 51°13.743 2°55.707 336.7 4.6 334 9.7
2005-01-25 07:39:36 51°13.75 2°55.701 335.3 5 331 9.5
2005-01-25 07:39:40 51°13.755 2°55.697 334.1 5.5 331 9.4
2005-01-25 07:39:45 51°13.763 2°55.689 333.7 5.5 331 9.1
2005-01-25 07:39:51 51°13.772 2°55.682 333.5 6.2 330 9.4
2005-01-25 07:39:56 51°13.78 2°55.674 333.4 6.4 331 9.5
2005-01-25 07:40:01 51°13.789 2°55.665 333.5 6.4 331 9.3
2005-01-25 07:40:06 51°13.798 2°55.658 333.7 6.4 331 9.5
2005-01-25 07:40:11 51°13.806 2°55.65 333.8 7.3 330 9.6
2005-01-25 07:40:16 51°13.816 2°55.642 334.2 7.5 330 9.7
2005-01-25 07:40:21 51°13.826 2°55.634 334.5 7.7 331 10.1
2005-01-25 07:40:25 51°13.834 2°55.626 335.1 7.8 331 9.7
2005-01-25 07:40:31 51°13.846 2°55.616 335.7 7.9 331 9.8
2005-01-25 07:40:36 51°13.855 2°55.608 336.4 8 333 9.8
2005-01-25 07:40:41 51°13.866 2°55.6 337.2 8.2 333 9.6
2005-01-25 07:40:45 51°13.875 2°55.592 338 8.3 333 9.9
2005-01-25 07:40:51 51°13.887 2°55.584 338 8.4 333 9.6
2005-01-25 07:40:56 51°13.898 2°55.576 338.2 8.4 333 9.6
2005-01-25 07:41:01 51°13.908 2°55.567 338.4 8.5 334 9.7
2005-01-25 07:41:05 51°13.918 2°55.56 338.9 8.6 335 9.6
2005-01-25 07:41:11 51°13.93 2°55.551 339.5 8.6 335 9.6
2005-01-25 07:41:16 51°13.941 2°55.544 339.6 8.6 335 9.4
2005-01-25 07:41:21 51°13.952 2°55.536 340 8.7 335 9
2005-01-25 07:41:25 51°13.962 2°55.529 340 8.7 335 9.3
2005-01-25 07:41:31 51°13.975 2°55.519 339.5 8.8 335 9.1
2005-01-25 07:41:36 51°13.985 2°55.512 339.4 8.8 335 9.3
2005-01-25 07:41:40 51°13.994 2°55.505 339.6 8.8 336 9.6
2005-01-25 07:41:45 51°14.006 2°55.495 339.9 8.8 336 9.3
2005-01-25 07:41:50 51°14.017 2°55.488 340.2 8.9 336 9.2
2005-01-25 07:41:56 51°14.03 2°55.479 340.8 8.9 337 9
2005-01-25 07:42:00 51°14.039 2°55.473 341 8.9 336 8.6
2005-01-25 07:42:05 51°14.052 2°55.464 340.9 8.9 336 8.8
2005-01-25 07:42:11 51°14.064 2°55.456 340.6 8.9 336 8.7
2005-01-25 07:42:16 51°14.076 2°55.448 340.7 8.9 336 8.6
2005-01-25 07:42:20 51°14.085 2°55.442 341.2 8.9 337 8.6
2005-01-25 07:42:25 51°14.097 2°55.433 341.3 8.9 337 8.6
2005-01-25 07:42:31 51°14.109 2°55.424 341.3 8.9 336 8.7
2005-01-25 07:42:36 51°14.121 2°55.416 341 8.9 336 8.7
2005-01-25 07:42:40 51°14.13 2°55.409 340.4 8.9 335 8.9
2005-01-25 07:42:45 51°14.142 2°55.401 339.6 8.9 334 9.4
2005-01-25 07:42:51 51°14.154 2°55.391 338.4 8.9 332 9.3
2005-01-25 07:42:56 51°14.165 2°55.381 337.3 8.9 332 9.6
2005-01-25 07:43:01 51°14.175 2°55.37 335.4 8.9 329 9.6
2005-01-25 07:43:05 51°14.184 2°55.36 333.2 8.8 326 9.8
2005-01-25 07:43:11 51°14.195 2°55.347 330.8 8.8 326 10.4
2005-01-25 07:43:16 51°14.204 2°55.335 328.5 8.8 322 9.5
2005-01-25 07:43:20 51°14.213 2°55.324 326.9 8.8 322 9.6
2005-01-25 07:43:25 51°14.222 2°55.311 325.1 8.8 319 9.5
2005-01-25 07:43:31 51°14.232 2°55.295 323.5 8.9 318 10
2005-01-25 07:43:36 51°14.24 2°55.282 321.4 8.9 318 9.7
2005-01-25 07:43:41 51°14.249 2°55.268 319.9 8.9 314 9.6
2005-01-25 07:43:45 51°14.257 2°55.255 318.5 8.9 313 9.7
2005-01-25 07:43:51 51°14.266 2°55.237 316.9 8.9 313 9.6
2005-01-25 07:43:56 51°14.274 2°55.224 316.1 9 312 9.5
2005-01-25 07:44:00 51°14.281 2°55.211 315.7 9.3 311 9.6
2005-01-25 07:44:05 51°14.29 2°55.194 315.6 9.5 311 9.5
2005-01-25 07:44:10 51°14.299 2°55.178 315.1 9.6 310 9.4
2005-01-25 07:44:16 51°14.309 2°55.159 314.6 9.7 310 9.3
2005-01-25 07:44:20 51°14.316 2°55.146 314.6 9.9 310 9.4
2005-01-25 07:44:25 51°14.325 2°55.127 315 10 311 9.3
2005-01-25 07:44:30 51°14.333 2°55.112 315.4 10.2 311 9.3
2005-01-25 07:44:36 51°14.345 2°55.091 315.7 10.2 311 9.3
2005-01-25 07:44:41 51°14.355 2°55.074 315.4 10.7 311 9.4
2005-01-25 07:44:45 51°14.364 2°55.057 315 10.9 311 9.6
2005-01-25 07:44:50 51°14.373 2°55.041 316.1 11 312 9.7
2005-01-25 07:44:56 51°14.386 2°55.019 317.3 11 312 9.8
2005-01-25 07:45:01 51°14.396 2°55 317.9 11.2 311 9.9
2005-01-25 07:45:05 51°14.405 2°54.983 317.6 11.3 311 9.9
2005-01-25 07:45:11 51°14.416 2°54.962 316.5 11.4 309 9.8
2005-01-25 07:45:16 51°14.426 2°54.941 315.3 11.5 308 9.9
2005-01-25 07:45:20 51°14.436 2°54.923 314.2 11.8 308 10
2005-01-25 07:45:25 51°14.444 2°54.903 313.4 11.9 307 9.7
2005-01-25 07:45:31 51°14.454 2°54.881 314.6 11.9 308 9.8
2005-01-25 07:45:36 51°14.467 2°54.861 317.1 11.9 308 9.8
2005-01-25 07:45:40 51°14.476 2°54.847 320.1 11.7 315 9.5
2005-01-25 07:45:45 51°14.49 2°54.829 324 11.6 319 9.4
2005-01-25 07:45:51 51°14.505 2°54.813 328.4 11.7 320 9.6
2005-01-25 07:45:56 51°14.52 2°54.8 332.4 11.7 320 9.3
2005-01-25 07:46:01 51°14.532 2°54.789 337 11.7 320 9.2
2005-01-25 07:46:05 51°14.545 2°54.779 340 11.4 332 9
2005-01-25 07:46:11 51°14.562 2°54.766 342.4 11.3 334 9.1
2005-01-25 07:46:16 51°14.576 2°54.757 344 11.3 336 8.9
2005-01-25 07:46:21 51°14.59 2°54.747 345.4 11.3 337 8.9
2005-01-25 07:46:25 51°14.603 2°54.739 346.8 11.3 337 8.9
2005-01-25 07:46:31 51°14.62 2°54.728 347.5 11.2 338 8.9
2005-01-25 07:46:36 51°14.633 2°54.719 347.8 11.3 338 8.8
2005-01-25 07:46:40 51°14.645 2°54.711 347.7 11.2 336 8.6
2005-01-25 07:46:45 51°14.66 2°54.699 346.7 11.3 336 8.7
2005-01-25 07:46:51 51°14.676 2°54.687 345.8 11.3 334 8.6
2005-01-25 07:46:56 51°14.69 2°54.676 344.8 11.4 334 8.6
2005-01-25 07:47:01 51°14.704 2°54.666 344.4 11.3 335 8.8
2005-01-25 07:47:05 51°14.717 2°54.657 344.5 11.3 335 8.8
2005-01-25 07:47:09 51°14.728 2°54.649 344.8 11.3 335 8.7
2005-01-25 07:47:16 51°14.747 2°54.636 345.3 11.3 335 8.7
2005-01-25 07:47:21 51°14.763 2°54.627 346.1 11.2 338 8.8
2005-01-25 07:47:25 51°14.775 2°54.619 347 11.2 338 8.6
2005-01-25 07:47:31 51°14.792 2°54.608 347.4 11.3 339 8.6
2005-01-25 07:47:35 51°14.804 2°54.602 347.4 11.3 339 8.5
2005-01-25 07:47:41 51°14.822 2°54.593 348.3 11.3 339 8.5
2005-01-25 07:47:45 51°14.834 2°54.587 349.9 11.3 339 8.4
2005-01-25 07:47:51 51°14.85 2°54.58 352 11.3 339 8.5
2005-01-25 07:47:56 51°14.865 2°54.575 353.4 11.1 346 8.4
2005-01-25 07:48:00 51°14.878 2°54.57 354.9 11.1 347 8.4
2005-01-25 07:48:06 51°14.895 2°54.563 355.7 11.1 347 8.4
2005-01-25 07:48:11 51°14.911 2°54.557 355.5 11 346 8.4
2005-01-25 07:48:16 51°14.924 2°54.55 354.7 11 345 8.2
2005-01-25 07:48:20 51°14.937 2°54.543 352.8 11 343 8.1
2005-01-25 07:48:25 51°14.952 2°54.535 350.7 11 343 7.9
2005-01-25 07:48:31 51°14.969 2°54.525 349.7 11 343 7.9
2005-01-25 07:48:36 51°14.982 2°54.518 348.9 11 340 7.7
2005-01-25 07:48:41 51°14.996 2°54.509 348.3 11 340 7.6
2005-01-25 07:48:46 51°15.011 2°54.501 347.9 11.1 340 7.5
2005-01-25 07:48:51 51°15.025 2°54.492 348.2 10.9 340 7.4
2005-01-25 07:48:56 51°15.04 2°54.483 348.3 10.9 339 7.4
2005-01-25 07:49:01 51°15.054 2°54.475 348 10.9 339 7.5
2005-01-25 07:49:05 51°15.066 2°54.468 347.9 10.9 339 7.4
2005-01-25 07:49:11 51°15.082 2°54.458 348.1 11 340 7.4
2005-01-25 07:49:16 51°15.098 2°54.449 348.2 11 340 7.5
2005-01-25 07:49:20 51°15.109 2°54.442 348.4 11 340 7.5
2005-01-25 07:49:26 51°15.126 2°54.434 348.6 11 340 7.6
2005-01-25 07:49:31 51°15.14 2°54.427 349.8 11.1 343 7.6
2005-01-25 07:49:36 51°15.155 2°54.421 351.1 11.1 343 7.6
2005-01-25 07:49:40 51°15.167 2°54.416 352.9 11.1 345 7.7
2005-01-25 07:49:46 51°15.186 2°54.408 353.7 11.1 345 7.6
2005-01-25 07:49:51 51°15.2 2°54.402 354.3 11.2 345 7.7
2005-01-25 07:49:56 51°15.215 2°54.396 354.6 11.1 346 7.7
2005-01-25 07:50:01 51°15.23 2°54.389 355 11.1 344 7.7
2005-01-25 07:50:06 51°15.245 2°54.381 354.9 11.1 344 7.8
2005-01-25 07:50:11 51°15.259 2°54.374 353.9 11.1 341 8
2005-01-25 07:50:16 51°15.273 2°54.366 353.3 11 341 8
2005-01-25 07:50:21 51°15.288 2°54.358 352.7 10.9 341 7.9
2005-01-25 07:50:26 51°15.302 2°54.35 352.5 11 341 8
2005-01-25 07:50:31 51°15.318 2°54.341 353.1 11 341 8.1
2005-01-25 07:50:36 51°15.331 2°54.335 353.7 11 341 8.2
2005-01-25 07:50:41 51°15.345 2°54.327 354.2 10.9 341 8.3
2005-01-25 07:50:45 51°15.359 2°54.321 354.3 10.9 341 8.3
2005-01-25 07:50:51 51°15.376 2°54.312 354.9 10.9 343 8.3
2005-01-25 07:50:56 51°15.389 2°54.307 355.1 11 344 8.4
2005-01-25 07:51:01 51°15.405 2°54.299 355.8 11 344 8.4
2005-01-25 07:51:05 51°15.417 2°54.294 356 11 344 8.5
2005-01-25 07:51:11 51°15.433 2°54.287 356.2 11 344 8.5
2005-01-25 07:51:16 51°15.448 2°54.281 356.1 11 345 8.6
2005-01-25 07:51:20 51°15.461 2°54.274 355.6 11 344 8.7
2005-01-25 07:51:26 51°15.477 2°54.265 355.3 11 344 8.7
2005-01-25 07:51:31 51°15.493 2°54.257 354.1 11 341 8.8
2005-01-25 07:51:36 51°15.506 2°54.25 353.2 11.1 341 8.9
2005-01-25 07:51:41 51°15.52 2°54.243 353.5 11 342 8.9
2005-01-25 07:51:45 51°15.534 2°54.236 353.9 11 342 8.9
2005-01-25 07:51:51 51°15.551 2°54.228 354.3 11 343 9
2005-01-25 07:51:55 51°15.563 2°54.222 354.8 11 344 8.8
2005-01-25 07:52:00 51°15.576 2°54.216 355.3 11.1 344 9.1
2005-01-25 07:52:05 51°15.592 2°54.209 355.5 11 344 9.1
2005-01-25 07:52:10 51°15.605 2°54.203 355.6 10.8 344 9
2005-01-25 07:52:16 51°15.623 2°54.195 355.3 10.8 344 9.2
2005-01-25 07:52:20 51°15.635 2°54.19 355.7 10.9 343 9.1
2005-01-25 07:52:25 51°15.651 2°54.183 355.2 10.9 344 9.3
2005-01-25 07:52:29 51°15.663 2°54.177 354.9 11 343 9.6
2005-01-25 07:52:36 51°15.681 2°54.168 354.9 10.9 343 9.5
2005-01-25 07:52:41 51°15.696 2°54.161 354.5 11 344 9.5
2005-01-25 07:52:45 51°15.709 2°54.155 354.4 11 344 9.7
2005-01-25 07:52:51 51°15.726 2°54.146 354.1 10.9 343 9.7
2005-01-25 07:52:56 51°15.739 2°54.14 353.9 10.9 343 9.7
2005-01-25 07:53:01 51°15.755 2°54.132 354.1 10.9 343 10
2005-01-25 07:53:05 51°15.767 2°54.126 353.9 10.9 343 9.9
2005-01-25 07:53:11 51°15.783 2°54.119 354.1 10.9 343 9.8
2005-01-25 07:53:16 51°15.799 2°54.113 354.4 10.8 344 10
2005-01-25 07:53:20 51°15.809 2°54.11 356.5 10.7 348 9.9
2005-01-25 07:53:25 51°15.825 2°54.105 358.4 10.6 348 10.1
2005-01-25 07:53:31 51°15.841 2°54.101 0.4 10.7 352 10.2
2005-01-25 07:53:36 51°15.855 2°54.099 1.4 10.7 352 10.2
2005-01-25 07:53:40 51°15.868 2°54.099 5 10.5 357 10.2
2005-01-25 07:53:45 51°15.883 2°54.099 7 10.4 358 10.2
2005-01-25 07:53:51 51°15.9 2°54.1 9.1 10.4 358 10.1
2005-01-25 07:53:56 51°15.913 2°54.101 12 10.3 3 10.3
2005-01-25 07:54:01 51°15.927 2°54.103 13.1 10.3 4 10.3
2005-01-25 07:54:05 51°15.94 2°54.105 13.8 10.2 6 10.3
2005-01-25 07:54:11 51°15.956 2°54.109 14.9 10.3 7 10.4
2005-01-25 07:54:16 51°15.97 2°54.113 16.7 10.3 10 10.3
2005-01-25 07:54:20 51°15.982 2°54.116 18.3 10.3 10 10.6
2005-01-25 07:54:25 51°15.996 2°54.122 19.9 10.2 13 10.5
2005-01-25 07:54:31 51°16.011 2°54.128 21.2 10.2 13 10.6
2005-01-25 07:54:35 51°16.024 2°54.134 22.1 10.1 17 10.4
2005-01-25 07:54:40 51°16.036 2°54.141 25 10.2 18 10.6
2005-01-25 07:54:45 51°16.05 2°54.149 25.8 10.2 19 10.5
2005-01-25 07:54:51 51°16.065 2°54.157 27 10.2 19 10.5
2005-01-25 07:54:56 51°16.078 2°54.165 27.7 10.2 21 10.6
2005-01-25 07:55:01 51°16.091 2°54.173 28.4 10.2 21 10.6
2005-01-25 07:55:05 51°16.102 2°54.178 27.8 9.4 18 10.6
2005-01-25 07:55:11 51°16.115 2°54.184 27.1 8.6 16 10.3
2005-01-25 07:55:16 51°16.126 2°54.189 25.8 8.6 16 10.5
2005-01-25 07:55:20 51°16.135 2°54.193 24.6 8.6 16 10.5
2005-01-25 07:55:25 51°16.145 2°54.197 24 7.5 13 10.6
2005-01-25 07:55:30 51°16.155 2°54.201 24 7.5 13 10.7
2005-01-25 07:55:36 51°16.164 2°54.206 25 6.8 18 10.8
2005-01-25 07:55:41 51°16.172 2°54.212 26.9 6.8 18 10.9
2005-01-25 07:55:45 51°16.179 2°54.217 30.4 6.1 25 10.9
2005-01-25 07:55:51 51°16.186 2°54.225 34.7 5.7 32 10.9
2005-01-25 07:55:56 51°16.193 2°54.233 39.5 5.7 32 10.9
2005-01-25 07:56:01 51°16.197 2°54.24 42.8 4.9 40 10.8
2005-01-25 07:56:05 51°16.201 2°54.245 45.1 4.5 39 10.8
2005-01-25 07:56:11 51°16.206 2°54.252 46.5 4.5 43 10.8
2005-01-25 07:56:16 51°16.21 2°54.258 47.7 4.5 43 10.9
2005-01-25 07:56:21 51°16.214 2°54.264 48.2 3.7 40 10.7
2005-01-25 07:56:25 51°16.216 2°54.268 48.9 3.3 43 10.7
2005-01-25 07:56:31 51°16.22 2°54.273 49.3 3.1 43 10.8
2005-01-25 07:56:36 51°16.222 2°54.277 49.6 2.9 44 10.9
2005-01-25 07:56:40 51°16.224 2°54.281 49.7 2.9 44 10.9
2005-01-25 07:56:45 51°16.227 2°54.285 50.4 2.4 49 10.9
2005-01-25 07:56:51 51°16.229 2°54.288 50.8 2.1 52 10.9
2005-01-25 07:56:56 51°16.229 2°54.29 51.7 1.6 47 10.9
2005-01-25 07:57:01 51°16.23 2°54.29 52.3 1.6 47 10.8
2005-01-25 07:57:06 51°16.23 2°54.29 51.9 0.4 112 10.9
2005-01-25 07:57:11 51°16.229 2°54.29 50 0.5 296 10.9
2005-01-25 07:57:16 51°16.229 2°54.288 48.6 0.3 166 10.9
2005-01-25 07:57:21 51°16.229 2°54.289 46.3 0.3 198 10.9
2005-01-25 07:57:25 51°16.229 2°54.287 44.1 0.6 260 11
2005-01-25 07:57:31 51°16.228 2°54.285 41.9 0.5 237 11
2005-01-25 07:57:36 51°16.228 2°54.283 39.8 0.8 263 10.9
2005-01-25 07:57:41 51°16.228 2°54.282 37.6 0.8 246 11
2005-01-25 07:57:45 51°16.227 2°54.28 35 1 250 11
2005-01-25 07:57:51 51°16.227 2°54.278 32.7 1 251 10.9
2005-01-25 07:57:56 51°16.226 2°54.275 30.4 1 251 11
2005-01-25 07:58:00 51°16.226 2°54.273 28.2 1 251 10.9
2005-01-25 07:58:06 51°16.225 2°54.27 25.6 1 251 11
2005-01-25 07:58:10 51°16.224 2°54.267 22.9 1 251 11
2005-01-25 07:58:16 51°16.224 2°54.264 20.4 1.5 255 11
2005-01-25 07:58:20 51°16.223 2°54.261 18.4 1.5 255 10.9
2005-01-25 07:58:25 51°16.222 2°54.258 15.9 1.5 255 11
2005-01-25 07:58:31 51°16.221 2°54.254 14.5 1.5 246 10.9
2005-01-25 07:58:36 51°16.22 2°54.251 13 1.5 246 10.8
2005-01-25 07:58:40 51°16.22 2°54.248 12.3 1.5 246 10.8
2005-01-25 07:58:46 51°16.219 2°54.244 10.8 1.5 246 10.9
2005-01-25 07:58:51 51°16.218 2°54.241 9.6 1.6 247 10.9
2005-01-25 07:58:56 51°16.217 2°54.237 8.9 1.8 251 10.8
2005-01-25 07:59:01 51°16.216 2°54.233 8.5 1.7 245 10.9
2005-01-25 07:59:05 51°16.215 2°54.23 7.2 1.7 245 10.9
2005-01-25 07:59:11 51°16.214 2°54.225 6.5 1.7 248 10.9
2005-01-25 07:59:16 51°16.213 2°54.221 5.4 2.1 249 10.9
2005-01-25 07:59:21 51°16.212 2°54.217 4.3 2.1 249 11
2005-01-25 07:59:26 51°16.211 2°54.213 2.9 2.1 248 10.9
2005-01-25 07:59:31 51°16.21 2°54.209 1.9 2 246 11.1
2005-01-25 07:59:36 51°16.209 2°54.205 0.7 2 246 11
2005-01-25 07:59:40 51°16.208 2°54.202 359.2 2.2 241 10.9
2005-01-25 07:59:45 51°16.206 2°54.197 357.8 2 243 10.8
2005-01-25 07:59:51 51°16.204 2°54.192 356.7 2 243 10.9
2005-01-25 07:59:56 51°16.203 2°54.189 355 2 243 11
2005-01-25 08:00:01 51°16.202 2°54.184 353.4 2 243 11
2005-01-25 08:00:05 51°16.2 2°54.181 352 2.2 236 11
2005-01-25 08:00:11 51°16.198 2°54.176 350.9 2.3 236 11
2005-01-25 08:00:16 51°16.197 2°54.173 349.3 2.2 238 11
2005-01-25 08:00:20 51°16.196 2°54.169 348 2.2 235 11
2005-01-25 08:00:26 51°16.194 2°54.164 346.6 2.2 235 11
2005-01-25 08:00:31 51°16.192 2°54.161 344.7 2.2 235 11.1
2005-01-25 08:00:36 51°16.19 2°54.157 343.3 2.2 235 11
2005-01-25 08:00:40 51°16.188 2°54.153 341.6 2.2 235 11
2005-01-25 08:00:45 51°16.186 2°54.149 339.8 2.4 231 10.9
2005-01-25 08:00:51 51°16.184 2°54.145 337.7 2.3 230 11
2005-01-25 08:00:56 51°16.182 2°54.141 335.8 2.3 230 11.1
2005-01-25 08:01:00 51°16.18 2°54.138 333.8 2.3 229 10.9
2005-01-25 08:01:05 51°16.178 2°54.133 331.8 2.4 230 10.9
2005-01-25 08:01:11 51°16.176 2°54.129 329.9 2.3 227 11.1
2005-01-25 08:01:16 51°16.173 2°54.125 328.4 2.3 227 10.9
2005-01-25 08:01:21 51°16.172 2°54.122 326.8 2.3 226 10.9
2005-01-25 08:01:26 51°16.169 2°54.117 324.7 2.2 229 11
2005-01-25 08:01:31 51°16.167 2°54.114 323.3 2.4 229 11
2005-01-25 08:01:36 51°16.165 2°54.11 322 2.3 229 11
2005-01-25 08:01:40 51°16.163 2°54.107 320.6 2.2 228 11
2005-01-25 08:01:45 51°16.161 2°54.103 319.5 2.2 228 11.1
2005-01-25 08:01:50 51°16.159 2°54.1 318.1 2.2 227 11
2005-01-25 08:01:56 51°16.157 2°54.095 317.6 2.2 227 10.9
2005-01-25 08:02:01 51°16.155 2°54.092 316.6 2.2 228 11
2005-01-25 08:02:05 51°16.153 2°54.089 316.1 2.2 228 10.9
2005-01-25 08:02:09 51°16.151 2°54.085 315 2.3 227 11
2005-01-25 08:02:16 51°16.148 2°54.08 313.7 2.3 227 11
2005-01-25 08:02:21 51°16.146 2°54.077 312.9 2.3 227 10.9
2005-01-25 08:02:25 51°16.144 2°54.074 312.1 2.3 227 10.9
2005-01-25 08:02:31 51°16.142 2°54.07 311 2.3 221 10.9
2005-01-25 08:02:36 51°16.139 2°54.066 310.2 2.3 221 10.9
2005-01-25 08:02:40 51°16.138 2°54.063 310.3 2.2 224 10.9
2005-01-25 08:02:45 51°16.135 2°54.059 308.9 2.3 226 10.9
2005-01-25 08:02:51 51°16.133 2°54.055 309 2.2 227 10.9
2005-01-25 08:02:56 51°16.131 2°54.051 307.7 2.2 227 11
2005-01-25 08:03:00 51°16.129 2°54.048 307.1 2.4 225 11
2005-01-25 08:03:05 51°16.126 2°54.044 306.5 2.4 225 11
2005-01-25 08:03:11 51°16.124 2°54.041 306.6 2.4 225 11
2005-01-25 08:03:16 51°16.121 2°54.038 305.8 2.4 225 11.1
2005-01-25 08:03:21 51°16.119 2°54.034 305.3 2.4 221 10.9
2005-01-25 08:03:25 51°16.117 2°54.031 304.3 2.4 221 10.9
2005-01-25 08:03:29 51°16.115 2°54.029 303.6 2.1 224 11
2005-01-25 08:03:36 51°16.112 2°54.024 303.1 2.1 224 11
2005-01-25 08:03:41 51°16.11 2°54.02 302.7 2.1 224 11
2005-01-25 08:03:45 51°16.108 2°54.018 302.6 2.1 224 11.1
2005-01-25 08:03:51 51°16.105 2°54.014 302.5 2.2 222 11
2005-01-25 08:03:56 51°16.103 2°54.011 302.5 2.2 222 11
2005-01-25 08:04:00 51°16.101 2°54.008 301.9 2.4 223 10.9
2005-01-25 08:04:05 51°16.099 2°54.004 301.8 2.3 222 10.9
2005-01-25 08:04:11 51°16.096 2°54 301.3 2.2 222 11
2005-01-25 08:04:16 51°16.094 2°53.997 300.7 2.2 222 11
2005-01-25 08:04:20 51°16.092 2°53.994 301 2.3 221 10.9
2005-01-25 08:04:25 51°16.09 2°53.991 300.7 2.3 221 11
2005-01-25 08:04:31 51°16.087 2°53.987 300.2 2.1 222 10.9
2005-01-25 08:04:36 51°16.085 2°53.984 300.8 1.9 224 10.9
2005-01-25 08:04:40 51°16.083 2°53.981 299.7 2.3 223 10.9
2005-01-25 08:04:45 51°16.08 2°53.977 299.3 2.3 223 11
2005-01-25 08:04:51 51°16.078 2°53.974 300.1 2.4 221 11
2005-01-25 08:04:56 51°16.076 2°53.97 300 2.1 226 10.9
2005-01-25 08:05:01 51°16.073 2°53.966 299.8 2.1 226 10.9
2005-01-25 08:05:06 51°16.071 2°53.963 300.3 2.1 226 10.8
2005-01-25 08:05:11 51°16.069 2°53.96 299.7 2.4 221 10.9
2005-01-25 08:05:16 51°16.066 2°53.956 300.2 2 226 10.9
2005-01-25 08:05:21 51°16.064 2°53.953 300.4 2.6 223 11
2005-01-25 08:05:25 51°16.062 2°53.95 300.4 2.6 223 11
2005-01-25 08:05:29 51°16.06 2°53.947 300.7 2.1 224 10.9
2005-01-25 08:05:36 51°16.057 2°53.943 300.7 2.1 224 11
2005-01-25 08:05:40 51°16.055 2°53.939 300.6 2.1 224 11
2005-01-25 08:05:45 51°16.053 2°53.936 300.7 2.1 224 10.9
2005-01-25 08:05:51 51°16.051 2°53.932 301.2 2.1 225 11
2005-01-25 08:05:56 51°16.048 2°53.929 301.9 2.5 225 11.1
2005-01-25 08:06:01 51°16.046 2°53.925 302.6 2.2 222 11
2005-01-25 08:06:05 51°16.044 2°53.922 302.4 2.2 222 11
2005-01-25 08:06:09 51°16.042 2°53.919 302.6 2.2 224 11
2005-01-25 08:06:16 51°16.039 2°53.915 302.5 2.2 224 11
2005-01-25 08:06:21 51°16.036 2°53.911 302.4 2.2 224 10.9
2005-01-25 08:06:25 51°16.035 2°53.908 302.6 2.3 224 10.9
2005-01-25 08:06:31 51°16.032 2°53.904 301.7 2.3 224 10.9
2005-01-25 08:06:36 51°16.029 2°53.901 301.9 2.3 223 11
2005-01-25 08:06:40 51°16.028 2°53.898 302.1 2.4 224 11
2005-01-25 08:06:46 51°16.025 2°53.895 302.5 2.5 224 11.1
2005-01-25 08:06:51 51°16.022 2°53.89 302.1 2.5 224 11
2005-01-25 08:06:56 51°16.02 2°53.887 303.3 2.1 223 10.9
2005-01-25 08:07:00 51°16.018 2°53.884 303 2.4 220 10.9
2005-01-25 08:07:06 51°16.016 2°53.881 303.3 1.9 223 10.8
2005-01-25 08:07:11 51°16.013 2°53.877 303.2 1.9 223 10.9
2005-01-25 08:07:16 51°16.011 2°53.874 304.1 2.3 224 10.9
2005-01-25 08:07:20 51°16.009 2°53.871 304.7 2.2 224 10.8
2005-01-25 08:07:26 51°16.007 2°53.865 304.7 2.4 233 10.9
2005-01-25 08:07:31 51°16.006 2°53.86 305 2.4 233 11
2005-01-25 08:07:36 51°16.005 2°53.854 307.1 2.7 251 11
2005-01-25 08:07:40 51°16.005 2°53.849 310.6 2.7 260 11.1
2005-01-25 08:07:46 51°16.005 2°53.842 314.8 3 270 11.2
2005-01-25 08:07:51 51°16.006 2°53.834 318.3 3 270 11.1
2005-01-25 08:07:56 51°16.007 2°53.828 323.9 3 285 11
2005-01-25 08:08:00 51°16.008 2°53.824 329.9 3.1 288 11
2005-01-25 08:08:06 51°16.011 2°53.816 335 3.1 288 11.1
2005-01-25 08:08:11 51°16.014 2°53.811 341.1 3.1 300 11
2005-01-25 08:08:16 51°16.017 2°53.806 345.4 3.1 308 11.1
2005-01-25 08:08:21 51°16.02 2°53.802 350.9 3.1 308 11
2005-01-25 08:08:25 51°16.023 2°53.799 356.5 2.9 324 11
2005-01-25 08:08:31 51°16.027 2°53.796 2 2.9 328 11.1
2005-01-25 08:08:36 51°16.031 2°53.795 8.7 2.9 328 11.1
2005-01-25 08:08:40 51°16.035 2°53.794 14.4 3.4 358 11
2005-01-25 08:08:46 51°16.042 2°53.796 18.8 3.4 358 11.1
2005-01-25 08:08:51 51°16.048 2°53.8 25.6 3.4 358 11.1
2005-01-25 08:08:56 51°16.053 2°53.804 30.4 4.3 22 11.2
2005-01-25 08:09:00 51°16.057 2°53.81 38.1 4.9 37 11
2005-01-25 08:09:05 51°16.063 2°53.82 42.6 4.9 37 10.9
2005-01-25 08:09:11 51°16.068 2°53.832 50 5.4 52 11
2005-01-25 08:09:16 51°16.071 2°53.843 57.2 5.7 63 10.7
2005-01-25 08:09:21 51°16.074 2°53.855 64.5 5.7 63 10.9
2005-01-25 08:09:26 51°16.078 2°53.868 66.4 6.3 65 10.9
2005-01-25 08:09:31 51°16.083 2°53.881 65.1 6.3 65 10.8
2005-01-25 08:09:36 51°16.088 2°53.893 62.2 6.3 65 11
2005-01-25 08:09:41 51°16.095 2°53.908 60.6 6.3 65 11.1
2005-01-25 08:09:45 51°16.1 2°53.917 58.6 7.2 54 11.1
2005-01-25 08:09:51 51°16.107 2°53.933 56.8 7.2 51 11.1
2005-01-25 08:09:56 51°16.113 2°53.944 55.4 7.5 50 11.2
2005-01-25 08:10:01 51°16.12 2°53.959 54.4 7.5 50 11.2
2005-01-25 08:10:05 51°16.126 2°53.969 54.3 7.5 50 11
2005-01-25 08:10:11 51°16.133 2°53.985 54.7 7.5 50 11
2005-01-25 08:10:16 51°16.14 2°53.998 55.2 7.5 50 11.1
2005-01-25 08:10:21 51°16.146 2°54.012 56.3 7.8 54 11.1
2005-01-25 08:10:26 51°16.152 2°54.026 57.3 7.9 54 11.1
2005-01-25 08:10:31 51°16.159 2°54.041 57.3 7.9 54 11
2005-01-25 08:10:36 51°16.165 2°54.055 57.3 7.9 54 11
2005-01-25 08:10:41 51°16.172 2°54.071 57.8 7.9 54 11
2005-01-25 08:10:46 51°16.177 2°54.086 58 8 55 11
2005-01-25 08:10:51 51°16.184 2°54.102 59.3 8.1 61 10.9
2005-01-25 08:10:56 51°16.188 2°54.115 59.9 7.8 60 10.8
2005-01-25 08:11:00 51°16.193 2°54.126 61 7.8 60 10.7
2005-01-25 08:11:06 51°16.199 2°54.144 61.6 7.6 60 10.9
2005-01-25 08:11:11 51°16.205 2°54.16 61.1 7.6 60 10.9
2005-01-25 08:11:16 51°16.209 2°54.171 61.6 7 56 11
2005-01-25 08:11:20 51°16.213 2°54.181 61.4 6.7 63 11
2005-01-25 08:11:26 51°16.218 2°54.195 61.6 6.1 57 11.1
2005-01-25 08:11:31 51°16.222 2°54.205 60.9 6.1 57 11.2
2005-01-25 08:11:36 51°16.226 2°54.214 60.2 5.1 58 11.2
2005-01-25 08:11:40 51°16.229 2°54.22 58.6 4.7 58 11.1
2005-01-25 08:11:46 51°16.233 2°54.229 57.2 4.7 58 11.2
2005-01-25 08:11:51 51°16.236 2°54.236 54.7 4 53 11.1
2005-01-25 08:11:56 51°16.239 2°54.241 53.2 3.7 51 11.1
2005-01-25 08:12:01 51°16.242 2°54.247 52.6 3.7 51 11
2005-01-25 08:12:06 51°16.244 2°54.252 54.7 3.7 51 11
2005-01-25 08:12:11 51°16.245 2°54.257 59.5 3.7 51 11.1
2005-01-25 08:12:16 51°16.246 2°54.262 63.1 3.7 51 11.2
2005-01-25 08:12:21 51°16.246 2°54.267 65.6 2.2 80 11.1
2005-01-25 08:12:25 51°16.247 2°54.271 67.3 2.2 80 11.1
2005-01-25 08:12:31 51°16.247 2°54.274 68.2 1.8 80 11.2
2005-01-25 08:12:35 51°16.247 2°54.277 69.9 1.3 94 11.3
2005-01-25 08:12:40 51°16.246 2°54.279 72.5 1.3 124 11.2
2005-01-25 08:12:46 51°16.245 2°54.281 74 0.7 123 11.2
2005-01-25 08:12:51 51°16.244 2°54.282 75.4 1.1 136 11.1
2005-01-25 08:12:56 51°16.243 2°54.282 76.1 1.1 136 11.1
2005-01-25 08:13:00 51°16.242 2°54.283 76.1 0.9 162 11.2
2005-01-25 08:13:06 51°16.241 2°54.282 76.4 0.9 162 11.2
2005-01-25 08:13:11 51°16.239 2°54.283 76.3 0.9 162 11.2
2005-01-25 08:13:16 51°16.238 2°54.283 76.3 0.9 162 11.1
2005-01-25 08:13:20 51°16.236 2°54.283 77.4 1.2 178 11.1
2005-01-25 08:13:25 51°16.234 2°54.283 78.3 1.1 185 11
2005-01-25 08:13:31 51°16.233 2°54.282 79.5 1.4 184 11.2
2005-01-25 08:13:36 51°16.231 2°54.282 79.6 1.6 190 11.1
2005-01-25 08:13:41 51°16.229 2°54.281 81.2 1.3 197 11.2
2005-01-25 08:13:45 51°16.227 2°54.28 81 1.6 195 11.2
2005-01-25 08:13:51 51°16.225 2°54.279 82 1.5 200 11.3
2005-01-25 08:13:56 51°16.223 2°54.278 82.5 1.5 200 11.1
2005-01-25 08:14:01 51°16.221 2°54.276 83.3 1.5 200 11.2
2005-01-25 08:14:05 51°16.219 2°54.275 83.9 1.5 200 11.2
2005-01-25 08:14:11 51°16.217 2°54.273 84.9 1.7 206 11.2
2005-01-25 08:14:16 51°16.215 2°54.271 85.5 1.6 207 11.1
2005-01-25 08:14:20 51°16.213 2°54.27 85.6 1.8 210 11.1
2005-01-25 08:14:25 51°16.211 2°54.267 86.5 1.8 210 11.2
2005-01-25 08:14:30 51°16.208 2°54.265 86.7 2 208 11.2
2005-01-25 08:14:36 51°16.206 2°54.263 87.1 1.8 212 11.1
2005-01-25 08:14:40 51°16.204 2°54.261 87.1 1.9 212 10.9
2005-01-25 08:14:46 51°16.202 2°54.259 88.1 2 205 11.1
2005-01-25 08:14:51 51°16.199 2°54.257 87.9 1.7 209 11
2005-01-25 08:14:56 51°16.197 2°54.256 87.8 2 202 11.1
2005-01-25 08:15:01 51°16.195 2°54.254 87.1 2 202 11.2
2005-01-25 08:15:06 51°16.192 2°54.253 86.2 1.7 206 11.1
2005-01-25 08:15:11 51°16.19 2°54.252 85.1 1.7 206 11.1
2005-01-25 08:15:16 51°16.188 2°54.25 84.1 1.7 206 11
2005-01-25 08:15:21 51°16.186 2°54.249 82.9 1.9 196 11.1
2005-01-25 08:15:26 51°16.184 2°54.248 81.3 1.9 196 11.1
2005-01-25 08:15:31 51°16.182 2°54.246 79.4 1.5 205 11.1
2005-01-25 08:15:36 51°16.18 2°54.245 77.6 1.2 219 11.1
2005-01-25 08:15:41 51°16.179 2°54.243 75.8 1.7 208 11.2
2005-01-25 08:15:45 51°16.176 2°54.242 74.4 1.4 216 11
2005-01-25 08:15:51 51°16.175 2°54.24 73.2 1.4 216 10.9
2005-01-25 08:15:56 51°16.172 2°54.239 72.5 1.3 217 10.8
2005-01-25 08:16:00 51°16.171 2°54.237 71.9 1.8 200 10.9
2005-01-25 08:16:05 51°16.169 2°54.235 70.5 1.8 200 10.9
2005-01-25 08:16:11 51°16.167 2°54.233 69.1 1.8 200 11
2005-01-25 08:16:16 51°16.166 2°54.232 67.7 1.5 210 11.1
2005-01-25 08:16:21 51°16.164 2°54.23 66.3 1.4 218 11.2
2005-01-25 08:16:26 51°16.163 2°54.228 64.2 1.3 213 11.2
2005-01-25 08:16:31 51°16.162 2°54.226 62 1.3 213 11.3
2005-01-25 08:16:36 51°16.16 2°54.225 59.8 1.3 213 11.3
2005-01-25 08:16:41 51°16.159 2°54.222 57.9 1.3 213 11.2
2005-01-25 08:16:46 51°16.157 2°54.222 55.9 1.3 236 11.2
2005-01-25 08:16:51 51°16.156 2°54.22 53 1.4 194 11.2
2005-01-25 08:16:56 51°16.154 2°54.218 51.5 1.4 194 11.1
2005-01-25 08:17:01 51°16.153 2°54.215 49.5 1.2 237 11.2
2005-01-25 08:17:06 51°16.152 2°54.215 47.1 1.4 217 11.1
2005-01-25 08:17:11 51°16.151 2°54.211 46 1.4 217 11
2005-01-25 08:17:16 51°16.149 2°54.21 45.9 1.4 216 11
2005-01-25 08:17:21 51°16.148 2°54.206 43.7 1.7 243 11
2005-01-25 08:17:25 51°16.146 2°54.204 43.1 1.7 243 11.1
2005-01-25 08:17:31 51°16.145 2°54.201 42 1.6 221 11.2
2005-01-25 08:17:36 51°16.143 2°54.197 40.1 1.6 221 11.1
2005-01-25 08:17:40 51°16.142 2°54.194 39.1 2 238 11.2
2005-01-25 08:17:46 51°16.14 2°54.191 36.6 2 238 11.2
2005-01-25 08:17:51 51°16.139 2°54.185 34 2 238 11.1
2005-01-25 08:17:56 51°16.137 2°54.182 32.8 2 229 11.1
2005-01-25 08:18:01 51°16.135 2°54.177 29.5 2.3 239 11.3
2005-01-25 08:18:05 51°16.134 2°54.174 26.8 2.3 239 11.3
2005-01-25 08:18:11 51°16.132 2°54.169 24.2 2.3 235 11.1
2005-01-25 08:18:16 51°16.129 2°54.165 21.9 2.4 235 11.3
2005-01-25 08:18:21 51°16.127 2°54.161 19.1 2.4 231 11.1
2005-01-25 08:18:25 51°16.126 2°54.157 15.6 2.4 231 11
2005-01-25 08:18:31 51°16.123 2°54.152 13.5 2.4 231 11.2
2005-01-25 08:18:36 51°16.121 2°54.147 10.5 2.4 231 11.2
2005-01-25 08:18:40 51°16.119 2°54.144 7.6 2.5 229 11.2
2005-01-25 08:18:46 51°16.116 2°54.139 4.2 2.5 229 11.3
2005-01-25 08:18:51 51°16.114 2°54.135 1.4 2.5 229 11.2
2005-01-25 08:18:56 51°16.112 2°54.131 358.5 2.5 229 11
2005-01-25 08:19:00 51°16.11 2°54.126 355.5 2.4 232 11.2
2005-01-25 08:19:05 51°16.109 2°54.122 352.2 2.6 242 11.1
2005-01-25 08:19:11 51°16.107 2°54.116 347.9 2.4 243 11.1
2005-01-25 08:19:16 51°16.107 2°54.111 342.6 2.5 252 11.1
2005-01-25 08:19:21 51°16.106 2°54.105 337.7 2.4 256 11.1
2005-01-25 08:19:26 51°16.106 2°54.1 332.4 2.9 264 11.1
2005-01-25 08:19:31 51°16.106 2°54.092 328.9 2.9 264 11.1
2005-01-25 08:19:36 51°16.106 2°54.086 324.2 3 270 11
2005-01-25 08:19:41 51°16.106 2°54.078 318.4 3.4 270 11
2005-01-25 08:19:45 51°16.106 2°54.071 313.5 3.4 270 11.1
2005-01-25 08:19:51 51°16.106 2°54.06 309 3.7 271 11.2
2005-01-25 08:19:56 51°16.106 2°54.052 304.9 3.7 271 11.2
2005-01-25 08:20:01 51°16.106 2°54.042 298.1 4.5 266 11.2
2005-01-25 08:20:06 51°16.105 2°54.031 291.7 4.9 264 11.1
2005-01-25 08:20:11 51°16.103 2°54.018 285.6 5.3 258 11.1
2005-01-25 08:20:16 51°16.102 2°54.006 280.3 5.3 258 10.9
2005-01-25 08:20:21 51°16.1 2°53.993 276.1 5.3 258 10.9
2005-01-25 08:20:25 51°16.098 2°53.98 272.2 5.3 258 10.9
2005-01-25 08:20:31 51°16.094 2°53.962 270 7.1 254 11
2005-01-25 08:20:36 51°16.092 2°53.947 268 7.1 254 11
2005-01-25 08:20:40 51°16.089 2°53.932 266.3 8.5 255 11.2
2005-01-25 08:20:45 51°16.085 2°53.911 264.5 8.5 255 11.2
2005-01-25 08:20:49 51°16.083 2°53.895 263.4 9.6 255 11.2
2005-01-25 08:20:56 51°16.078 2°53.866 262.6 9.9 251 11.2
2005-01-25 08:21:00 51°16.073 2°53.845 262.3 9.9 251 11.1
2005-01-25 08:21:05 51°16.07 2°53.821 262.2 11.1 253 11.1
2005-01-25 08:21:11 51°16.065 2°53.79 263.7 11.5 258 11.1
2005-01-25 08:21:16 51°16.062 2°53.766 264.6 12.2 258 11.1
2005-01-25 08:21:21 51°16.058 2°53.735 266.6 12.4 259 11.1
2005-01-25 08:21:25 51°16.056 2°53.712 267.9 12.4 259 11.1
2005-01-25 08:21:31 51°16.052 2°53.681 268.1 13.4 259 11.1
2005-01-25 08:21:36 51°16.049 2°53.651 268.2 13.4 260 11
2005-01-25 08:21:40 51°16.047 2°53.627 268.7 13.8 261 11.2
2005-01-25 08:21:45 51°16.044 2°53.593 269 13.8 261 11.1
2005-01-25 08:21:51 51°16.041 2°53.555 270.7 14.1 263 11.2
2005-01-25 08:21:56 51°16.04 2°53.527 271 14.3 264 11.3
2005-01-25 08:22:00 51°16.038 2°53.498 272 14.3 264 11.4
2005-01-25 08:22:06 51°16.036 2°53.462 272.1 14.6 264 11.2
2005-01-25 08:22:11 51°16.034 2°53.427 273 14.5 266 11.2
2005-01-25 08:22:16 51°16.033 2°53.398 273.8 14.5 266 11.2
2005-01-25 08:22:20 51°16.034 2°53.369 275.1 14.5 266 11.3
2005-01-25 08:22:25 51°16.036 2°53.337 278.6 14.5 266 11.4
2005-01-25 08:22:31 51°16.04 2°53.303 283 14.4 280 11.4
2005-01-25 08:22:36 51°16.045 2°53.272 287.8 14.4 280 11.5
2005-01-25 08:22:41 51°16.05 2°53.242 291.8 14.2 284 11.6
2005-01-25 08:22:45 51°16.056 2°53.215 293.2 14.2 286 11.6
2005-01-25 08:22:50 51°16.063 2°53.19 297.4 14 290 11.4
2005-01-25 08:22:56 51°16.074 2°53.157 301.3 14 290 11.5
2005-01-25 08:23:01 51°16.085 2°53.13 305.8 14 290 11.8
2005-01-25 08:23:05 51°16.094 2°53.111 310.8 13.5 304 11.5
2005-01-25 08:23:11 51°16.109 2°53.083 314.2 13.6 306 11.6
2005-01-25 08:23:16 51°16.119 2°53.063 317.8 13.4 309 11.8
2005-01-25 08:23:21 51°16.134 2°53.042 320.3 13.4 309 11.8
2005-01-25 08:23:25 51°16.146 2°53.027 325.7 13.4 309 12
2005-01-25 08:23:31 51°16.162 2°53.008 329.3 13.4 309 11.9
2005-01-25 08:23:36 51°16.177 2°52.993 333.5 13.4 309 11.9
2005-01-25 08:23:41 51°16.194 2°52.977 336.4 12.8 328 11.8
2005-01-25 08:23:45 51°16.206 2°52.965 338 12.9 329 12.2
2005-01-25 08:23:51 51°16.223 2°52.949 338.7 12.7 329 11.9
2005-01-25 08:23:56 51°16.239 2°52.937 339.9 12.8 333 11.9
2005-01-25 08:24:01 51°16.255 2°52.925 342.6 12.8 334 12.3
2005-01-25 08:24:06 51°16.271 2°52.914 344.8 12.6 337 12
2005-01-25 08:24:11 51°16.287 2°52.903 346.5 12.8 336 12.1
2005-01-25 08:24:16 51°16.304 2°52.893 347.4 12.7 339 11.9
2005-01-25 08:24:21 51°16.322 2°52.882 348.3 12.7 338 12
2005-01-25 08:24:26 51°16.338 2°52.873 348.3 12.7 338 11.9
2005-01-25 08:24:31 51°16.355 2°52.864 349.4 12.7 342 12.1
2005-01-25 08:24:36 51°16.371 2°52.857 351 12.7 342 12
2005-01-25 08:24:40 51°16.384 2°52.849 351.9 12.6 341 11.7
2005-01-25 08:24:45 51°16.402 2°52.84 351.3 12.6 341 12
2005-01-25 08:24:51 51°16.422 2°52.83 351.5 12.6 342 11.9
2005-01-25 08:24:56 51°16.437 2°52.822 352.5 12.6 342 11.6
2005-01-25 08:25:01 51°16.454 2°52.814 352.2 12.5 343 11.8
2005-01-25 08:25:05 51°16.469 2°52.807 352.6 12.4 344 11.9
2005-01-25 08:25:11 51°16.489 2°52.798 353 12.4 344 11.5
2005-01-25 08:25:16 51°16.504 2°52.791 353 12.6 343 11.4
2005-01-25 08:25:20 51°16.519 2°52.784 353 12.6 343 11.4
2005-01-25 08:25:26 51°16.537 2°52.775 352.7 12.6 343 11.3
2005-01-25 08:25:31 51°16.554 2°52.767 352.9 12.6 344 11.1
2005-01-25 08:25:36 51°16.571 2°52.76 353.2 12.6 344 11.2
2005-01-25 08:25:40 51°16.586 2°52.753 353.1 12.6 344 11
2005-01-25 08:25:45 51°16.603 2°52.745 353.1 12.6 344 10.9
2005-01-25 08:25:51 51°16.621 2°52.736 352.7 12.6 344 10.9
2005-01-25 08:25:56 51°16.64 2°52.728 352.6 12.6 344 10.7
2005-01-25 08:26:00 51°16.653 2°52.721 352.3 12.6 344 10.6
2005-01-25 08:26:05 51°16.67 2°52.713 352.2 12.6 344 10.5
2005-01-25 08:26:10 51°16.687 2°52.705 352 12.7 343 10.4
2005-01-25 08:26:16 51°16.705 2°52.696 352.1 12.7 343 10.1
2005-01-25 08:26:20 51°16.718 2°52.69 352.2 12.6 343 10.1
2005-01-25 08:26:25 51°16.736 2°52.681 351.9 12.6 343 9.8
2005-01-25 08:26:30 51°16.751 2°52.673 351.9 12.4 342 9.1
2005-01-25 08:26:36 51°16.771 2°52.664 352.1 12.4 343 9.2
2005-01-25 08:26:41 51°16.787 2°52.656 351.8 12.4 343 9.2
2005-01-25 08:26:46 51°16.804 2°52.649 352.1 12.3 343 9.1
2005-01-25 08:26:51 51°16.821 2°52.64 352.7 12.3 343 9.2
2005-01-25 08:26:56 51°16.836 2°52.633 352.8 12.3 343 9.1
2005-01-25 08:27:01 51°16.854 2°52.625 352.7 12.3 343 9.1
2005-01-25 08:27:05 51°16.867 2°52.619 352.7 12.3 343 9
2005-01-25 08:27:11 51°16.887 2°52.609 352.3 12.3 343 9
2005-01-25 08:27:16 51°16.902 2°52.602 352 12.3 343 9.2
2005-01-25 08:27:20 51°16.914 2°52.595 352.3 12.3 343 9.3
2005-01-25 08:27:26 51°16.935 2°52.586 352.1 12.3 343 9.3
2005-01-25 08:27:31 51°16.953 2°52.578 352.3 12.3 343 9.5
2005-01-25 08:27:36 51°16.968 2°52.571 352.7 12.3 343 9.4
2005-01-25 08:27:41 51°16.986 2°52.563 353.2 12.3 343 9.4
2005-01-25 08:27:46 51°17.002 2°52.556 353.5 12.6 345 9.2
2005-01-25 08:27:51 51°17.018 2°52.549 353.3 12.5 344 9.1
2005-01-25 08:27:56 51°17.034 2°52.541 353.3 12.5 344 9.2
2005-01-25 08:28:01 51°17.052 2°52.533 353.4 12.3 343 9.1
2005-01-25 08:28:06 51°17.067 2°52.526 353 12.3 343 9
2005-01-25 08:28:11 51°17.085 2°52.517 352.8 12.3 343 9.1
2005-01-25 08:28:16 51°17.1 2°52.51 352.6 12.4 343 9.1
2005-01-25 08:28:21 51°17.116 2°52.502 352.7 12.4 343 9
2005-01-25 08:28:25 51°17.131 2°52.495 352.8 12.4 343 9.2
2005-01-25 08:28:31 51°17.149 2°52.488 353.1 12.4 344 9.3
2005-01-25 08:28:36 51°17.166 2°52.479 353.7 12.4 344 9.3
2005-01-25 08:28:41 51°17.182 2°52.471 353.6 12.4 344 9.1
2005-01-25 08:28:45 51°17.197 2°52.464 353.4 12.4 344 9.2
2005-01-25 08:28:50 51°17.212 2°52.457 353.4 12.3 343 9.4
2005-01-25 08:28:56 51°17.232 2°52.447 353.1 12.3 342 9.3
2005-01-25 08:29:01 51°17.248 2°52.438 352.7 12.4 343 9.5
2005-01-25 08:29:06 51°17.265 2°52.429 352.5 12.6 340 9.6
2005-01-25 08:29:11 51°17.283 2°52.418 351.6 12.5 341 9.6
2005-01-25 08:29:16 51°17.297 2°52.408 349.3 12.6 338 9.7
2005-01-25 08:29:21 51°17.314 2°52.395 348.2 12.5 338 9.8
2005-01-25 08:29:25 51°17.327 2°52.386 345.8 12.5 335 9.8
2005-01-25 08:29:31 51°17.346 2°52.37 345.3 12.6 335 9.8
2005-01-25 08:29:36 51°17.36 2°52.358 344.1 12.6 335 9.6
2005-01-25 08:29:40 51°17.372 2°52.348 342.7 12.6 332 9.7
2005-01-25 08:29:45 51°17.389 2°52.333 342.4 12.6 332 9.8
2005-01-25 08:29:51 51°17.406 2°52.317 341.8 12.8 331 9.8
2005-01-25 08:29:56 51°17.421 2°52.303 341.3 12.8 330 9.8
2005-01-25 08:30:01 51°17.436 2°52.288 339.9 12.8 330 9.8
2005-01-25 08:30:06 51°17.451 2°52.273 339.2 12.8 328 10
2005-01-25 08:30:11 51°17.466 2°52.256 338.5 12.8 328 10
2005-01-25 08:30:16 51°17.48 2°52.24 336.6 12.8 325 10
2005-01-25 08:30:21 51°17.496 2°52.222 336 12.9 325 10.2
2005-01-25 08:30:25 51°17.508 2°52.209 335.9 12.9 325 9.9
2005-01-25 08:30:31 51°17.524 2°52.191 335.8 12.9 324 10
2005-01-25 08:30:36 51°17.538 2°52.174 335.5 12.9 324 10
2005-01-25 08:30:41 51°17.554 2°52.155 335.6 12.9 324 10.1
2005-01-25 08:30:45 51°17.566 2°52.142 335.6 12.9 324 10
2005-01-25 08:30:51 51°17.584 2°52.123 335.4 12.9 325 9.9
2005-01-25 08:30:56 51°17.596 2°52.108 335.6 12.9 325 10.1
2005-01-25 08:31:00 51°17.61 2°52.093 335.4 12.9 325 9.9
2005-01-25 08:31:05 51°17.624 2°52.076 335.2 12.9 325 9.9
2005-01-25 08:31:11 51°17.642 2°52.056 335.7 13 325 10
2005-01-25 08:31:16 51°17.655 2°52.04 335.3 13 325 9.8
2005-01-25 08:31:21 51°17.668 2°52.023 334.8 12.8 323 10
2005-01-25 08:31:25 51°17.681 2°52.007 334.7 12.8 323 9.8
2005-01-25 08:31:31 51°17.697 2°51.988 334.9 12.8 323 9.9
2005-01-25 08:31:36 51°17.711 2°51.971 334.7 12.8 323 10
2005-01-25 08:31:40 51°17.722 2°51.958 334.6 12.7 323 9.8
2005-01-25 08:31:46 51°17.739 2°51.936 335.5 12.7 323 9.6
2005-01-25 08:31:51 51°17.755 2°51.918 335.4 12.7 323 9.8
2005-01-25 08:31:56 51°17.768 2°51.903 336.3 12.6 324 9.7
2005-01-25 08:32:01 51°17.781 2°51.888 336.3 12.7 324 10
2005-01-25 08:32:05 51°17.795 2°51.873 336.7 12.7 324 9.9
2005-01-25 08:32:11 51°17.81 2°51.856 336.9 12.6 325 9.8
2005-01-25 08:32:16 51°17.825 2°51.839 337.1 12.6 326 9.8
2005-01-25 08:32:21 51°17.841 2°51.822 337.3 12.7 326 9.7
2005-01-25 08:32:25 51°17.853 2°51.809 337.4 12.7 326 9.8
2005-01-25 08:32:31 51°17.869 2°51.79 337.2 12.7 325 9.8
2005-01-25 08:32:36 51°17.883 2°51.774 336.4 12.9 324 9.9
2005-01-25 08:32:40 51°17.895 2°51.761 335.9 12.9 325 9.9
2005-01-25 08:32:45 51°17.911 2°51.742 336 13 324 10
2005-01-25 08:32:51 51°17.926 2°51.723 335.9 12.8 324 9.8
2005-01-25 08:32:56 51°17.941 2°51.705 335.9 12.8 324 9.8
2005-01-25 08:33:01 51°17.957 2°51.688 335 13 323 9.9
2005-01-25 08:33:06 51°17.97 2°51.672 335.3 13 323 10
2005-01-25 08:33:11 51°17.986 2°51.654 335.4 13 324 10.1
2005-01-25 08:33:16 51°17.999 2°51.639 336.2 13 324 10.2
2005-01-25 08:33:20 51°18.011 2°51.625 336 13.1 324 10.3
2005-01-25 08:33:25 51°18.027 2°51.606 336 13.1 324 10.4
2005-01-25 08:33:30 51°18.041 2°51.59 336 13.1 324 10.5
2005-01-25 08:33:36 51°18.057 2°51.571 336.3 12.9 324 10.5
2005-01-25 08:33:41 51°18.073 2°51.553 336.7 13 325 10.6
2005-01-25 08:33:46 51°18.088 2°51.537 336.4 13.1 325 10.7
2005-01-25 08:33:51 51°18.104 2°51.519 336.7 13.1 325 10.8
2005-01-25 08:33:56 51°18.117 2°51.504 336.4 13.1 325 10.9
2005-01-25 08:34:01 51°18.132 2°51.488 336.3 13 325 11.1
2005-01-25 08:34:06 51°18.147 2°51.471 336.8 13 325 11.2
2005-01-25 08:34:11 51°18.162 2°51.454 337.2 13 324 11.2
2005-01-25 08:34:16 51°18.177 2°51.437 336.4 13 324 11.5
2005-01-25 08:34:20 51°18.188 2°51.423 336 13.1 324 11.5
2005-01-25 08:34:25 51°18.204 2°51.404 335.7 13.2 323 11.8
2005-01-25 08:34:31 51°18.22 2°51.384 335.8 13.1 322 11.9
2005-01-25 08:34:36 51°18.235 2°51.366 335.7 13.2 323 11.9
2005-01-25 08:34:40 51°18.247 2°51.352 335.3 13.2 323 12
2005-01-25 08:34:46 51°18.265 2°51.331 335.7 13.1 324 12.1
2005-01-25 08:34:51 51°18.279 2°51.314 336.4 13.2 324 12.2
2005-01-25 08:34:56 51°18.294 2°51.297 336.8 13.2 324 12.3
2005-01-25 08:35:00 51°18.307 2°51.282 336.7 13.1 324 12.5
2005-01-25 08:35:05 51°18.322 2°51.264 335.7 13.1 324 12.5
2005-01-25 08:35:11 51°18.34 2°51.242 335 13.2 322 12.4
2005-01-25 08:35:16 51°18.353 2°51.225 334.3 13.2 322 12.5
2005-01-25 08:35:21 51°18.366 2°51.208 333.9 13.2 322 12.8
2005-01-25 08:35:25 51°18.379 2°51.191 333.7 13.2 322 13
2005-01-25 08:35:29 51°18.39 2°51.177 333.8 13 321 12.7
2005-01-25 08:35:36 51°18.409 2°51.152 333.3 13 321 12.8
2005-01-25 08:35:41 51°18.422 2°51.133 333.1 13.1 320 13.1
2005-01-25 08:35:45 51°18.434 2°51.113 332.3 13.1 320 13
2005-01-25 08:35:51 51°18.449 2°51.087 328.3 13.3 313 13.1
2005-01-25 08:35:56 51°18.46 2°51.069 324.5 13.1 313 13.1
2005-01-25 08:36:01 51°18.473 2°51.052 325.5 12.3 317 13.3
2005-01-25 08:36:06 51°18.484 2°51.041 331.3 12.3 317 13.2
2005-01-25 08:36:11 51°18.496 2°51.033 339 12.3 317 13.4
2005-01-25 08:36:16 51°18.504 2°51.027 346.2 8.5 335 13.6
2005-01-25 08:36:21 51°18.513 2°51.022 353 8.5 335 13.8
2005-01-25 08:36:26 51°18.521 2°51.017 356.9 8.5 335 13.8
2005-01-25 08:36:29 51°18.525 2°51.015 359.9 5.2 341 13.9
2005-01-25 08:36:36 51°18.533 2°51.011 2.7 4.8 340 14.1
2005-01-25 08:36:41 51°18.538 2°51.008 5.9 4 342 14
2005-01-25 08:36:45 51°18.541 2°51.007 9.2 3.4 340 14
2005-01-25 08:36:51 51°18.544 2°51.006 13 2.6 342 14.1
2005-01-25 08:36:56 51°18.545 2°51.005 17.3 2.6 342 14
2005-01-25 08:37:01 51°18.547 2°51.003 20.8 2.6 342 14
2005-01-25 08:37:05 51°18.548 2°51.002 25.9 1.3 324 14
2005-01-25 08:37:11 51°18.549 2°51 29.5 1.1 312 14.1
2005-01-25 08:37:16 51°18.55 2°50.999 32.3 1.1 308 14
2005-01-25 08:37:21 51°18.55 2°50.997 34.5 0.8 299 14
2005-01-25 08:37:26 51°18.551 2°50.995 35.6 0.8 299 14
2005-01-25 08:37:31 51°18.551 2°50.993 36.5 0.7 289 14
2005-01-25 08:37:36 51°18.551 2°50.992 36.9 0.7 289 14
2005-01-25 08:37:40 51°18.552 2°50.991 37.5 0.8 280 14
2005-01-25 08:37:45 51°18.552 2°50.988 37.8 0.8 280 14.1
2005-01-25 08:37:50 51°18.552 2°50.986 37.9 0.8 268 14
2005-01-25 08:37:56 51°18.552 2°50.984 38.1 0.8 268 13.9
2005-01-25 08:38:01 51°18.551 2°50.982 38.4 1 262 13.9
2005-01-25 08:38:05 51°18.551 2°50.98 38.3 1 265 13.9
2005-01-25 08:38:11 51°18.55 2°50.977 38.1 1 265 13.8
2005-01-25 08:38:16 51°18.55 2°50.974 38.4 1.1 246 13.8
2005-01-25 08:38:20 51°18.549 2°50.972 38.1 1.1 246 13.9
2005-01-25 08:38:26 51°18.548 2°50.97 37.2 1.1 246 13.8
2005-01-25 08:38:31 51°18.547 2°50.967 37 1.4 246 13.8
2005-01-25 08:38:36 51°18.547 2°50.964 37.7 1.4 246 13.9
2005-01-25 08:38:40 51°18.546 2°50.961 37.5 1.4 246 14.2
2005-01-25 08:38:45 51°18.544 2°50.959 37 1.4 246 14.2
2005-01-25 08:38:51 51°18.543 2°50.955 36.6 1.5 232 13.9
2005-01-25 08:38:56 51°18.542 2°50.952 37.6 1.5 232 13.8
2005-01-25 08:39:00 51°18.54 2°50.949 38 1.8 233 13.7
2005-01-25 08:39:05 51°18.539 2°50.945 37.9 1.8 233 13.7
2005-01-25 08:39:10 51°18.537 2°50.942 37.4 1.7 231 13.7
2005-01-25 08:39:16 51°18.535 2°50.938 37.6 1.7 231 13.7
2005-01-25 08:39:21 51°18.534 2°50.934 36.7 2 230 13.8
2005-01-25 08:39:25 51°18.532 2°50.931 36.4 2 230 13.9
2005-01-25 08:39:29 51°18.531 2°50.928 36.1 2.2 233 14
2005-01-25 08:39:36 51°18.528 2°50.923 36.1 2.2 233 14.1
2005-01-25 08:39:41 51°18.526 2°50.919 35.4 2.2 229 14.1
2005-01-25 08:39:45 51°18.524 2°50.916 34.8 2.3 229 14.2
2005-01-25 08:39:51 51°18.522 2°50.911 33.7 2.4 234 14.2
2005-01-25 08:39:56 51°18.52 2°50.907 33 2.2 227 14.3
2005-01-25 08:40:01 51°18.518 2°50.902 31.6 2.6 230 14.3
2005-01-25 08:40:06 51°18.516 2°50.898 30.2 2.4 224 14.1
2005-01-25 08:40:11 51°18.514 2°50.894 29 2.5 231 14.1
2005-01-25 08:40:16 51°18.511 2°50.889 27.6 2.8 235 14.1
2005-01-25 08:40:21 51°18.509 2°50.885 26.3 2.5 225 14
2005-01-25 08:40:25 51°18.507 2°50.88 24.2 2.8 232 14
2005-01-25 08:40:31 51°18.504 2°50.875 22.7 2.6 224 14.1
2005-01-25 08:40:36 51°18.502 2°50.871 20.5 2.6 224 14
2005-01-25 08:40:41 51°18.499 2°50.866 19.2 2.6 229 13.9
2005-01-25 08:40:45 51°18.497 2°50.862 17.5 3.1 232 14
2005-01-25 08:40:51 51°18.494 2°50.857 15.4 3.1 232 14
2005-01-25 08:40:56 51°18.492 2°50.852 13.2 3.2 230 14
2005-01-25 08:41:01 51°18.489 2°50.848 11 2.9 231 14
2005-01-25 08:41:05 51°18.486 2°50.843 8.6 2.7 225 13.9
2005-01-25 08:41:11 51°18.483 2°50.838 6.6 2.8 224 14
2005-01-25 08:41:16 51°18.481 2°50.834 4.3 2.9 227 14
2005-01-25 08:41:20 51°18.479 2°50.831 2.5 2.9 227 14
2005-01-25 08:41:26 51°18.476 2°50.826 1.1 2.9 227 14.1
2005-01-25 08:41:31 51°18.475 2°50.821 359.7 2.3 237 14
2005-01-25 08:41:36 51°18.474 2°50.817 358.4 2.3 237 14
2005-01-25 08:41:40 51°18.473 2°50.813 356.3 2.3 237 14
2005-01-25 08:41:45 51°18.473 2°50.808 355.4 2.3 237 13.9
2005-01-25 08:41:51 51°18.474 2°50.803 355.3 2.2 272 13.9
2005-01-25 08:41:56 51°18.476 2°50.799 357.5 2.2 272 14
2005-01-25 08:42:00 51°18.478 2°50.796 0.7 2.3 309 13.9
2005-01-25 08:42:05 51°18.48 2°50.792 5 2.3 309 13.8
2005-01-25 08:42:10 51°18.483 2°50.79 9.6 2.2 328 13.9
2005-01-25 08:42:16 51°18.487 2°50.789 15.1 2.2 328 13.9
2005-01-25 08:42:21 51°18.49 2°50.788 20.9 2.3 353 14
2005-01-25 08:42:25 51°18.493 2°50.79 27.3 2.3 2 14.1
2005-01-25 08:42:31 51°18.497 2°50.792 33.7 2.6 20 14.1
2005-01-25 08:42:36 51°18.501 2°50.795 37.8 2.6 20 14.1
2005-01-25 08:42:41 51°18.505 2°50.8 40.1 2.6 20 14.1
2005-01-25 08:42:46 51°18.51 2°50.806 42.7 4 34 14.1
2005-01-25 08:42:51 51°18.516 2°50.815 44.8 5.3 44 14.1
2005-01-25 08:42:56 51°18.522 2°50.824 47.1 5.9 43 14.2
2005-01-25 08:43:01 51°18.528 2°50.836 48.7 6.2 45 14
2005-01-25 08:43:06 51°18.536 2°50.848 49.7 6.2 45 14.1
2005-01-25 08:43:11 51°18.544 2°50.862 50.9 8 48 14.1
2005-01-25 08:43:16 51°18.552 2°50.876 51.3 8.8 49 14
2005-01-25 08:43:20 51°18.559 2°50.888 51.8 8.9 48 14.1
2005-01-25 08:43:26 51°18.569 2°50.908 51.5 8.9 48 14
2005-01-25 08:43:31 51°18.578 2°50.924 51.9 10 48 14.1
2005-01-25 08:43:36 51°18.587 2°50.943 52.1 10.4 55 14
2005-01-25 08:43:41 51°18.596 2°50.965 55.2 10.5 55 14.1
2005-01-25 08:43:45 51°18.602 2°50.981 58 10.7 56 13.8
2005-01-25 08:43:51 51°18.611 2°51.004 59.8 10.9 59 13.9
2005-01-25 08:43:56 51°18.618 2°51.025 60.9 11 62 14
2005-01-25 08:44:01 51°18.625 2°51.046 61.5 11.1 60 14
2005-01-25 08:44:06 51°18.633 2°51.069 62.5 11.1 60 14.1
2005-01-25 08:44:11 51°18.64 2°51.094 63.8 11.1 60 14
2005-01-25 08:44:16 51°18.646 2°51.114 65.2 11.1 60 14.1
2005-01-25 08:44:21 51°18.651 2°51.138 66.7 11.5 69 14.2
2005-01-25 08:44:26 51°18.658 2°51.161 68 11.5 69 14.2
2005-01-25 08:44:31 51°18.663 2°51.186 68.5 11.5 69 14
2005-01-25 08:44:36 51°18.668 2°51.209 69.3 11.4 71 14
2005-01-25 08:44:41 51°18.674 2°51.235 70.4 11.6 71 13.9
2005-01-25 08:44:46 51°18.679 2°51.258 70.3 11.6 71 13.9
2005-01-25 08:44:51 51°18.685 2°51.284 71.2 11.5 71 14
2005-01-25 08:44:56 51°18.69 2°51.305 70.6 11.4 70 13.9
2005-01-25 08:45:00 51°18.694 2°51.324 70.4 11.6 71 14
2005-01-25 08:45:05 51°18.7 2°51.35 70.8 11.6 70 14
2005-01-25 08:45:11 51°18.706 2°51.38 70.7 11.6 70 13.9
2005-01-25 08:45:16 51°18.711 2°51.401 70.8 11.5 71 13.8
2005-01-25 08:45:21 51°18.717 2°51.426 70.9 11.5 71 13.8
2005-01-25 08:45:26 51°18.723 2°51.449 71.1 11.7 70 14
2005-01-25 08:45:31 51°18.728 2°51.476 70 11.5 69 14
2005-01-25 08:45:36 51°18.733 2°51.497 69.9 11.5 69 13.7
2005-01-25 08:45:41 51°18.739 2°51.522 70.9 11.6 70 13.7
2005-01-25 08:45:45 51°18.743 2°51.543 70.6 11.6 70 13.7
2005-01-25 08:45:51 51°18.749 2°51.569 70.8 11.6 72 13.7
2005-01-25 08:45:56 51°18.755 2°51.593 70.4 11.6 72 13.7
2005-01-25 08:46:01 51°18.761 2°51.618 70.2 11.6 70 13.7
2005-01-25 08:46:05 51°18.766 2°51.639 70.5 11.6 70 13.7
2005-01-25 08:46:10 51°18.77 2°51.662 70.2 11.7 72 13.7
2005-01-25 08:46:16 51°18.778 2°51.69 70.3 11.6 68 13.7
2005-01-25 08:46:21 51°18.783 2°51.713 70 11.6 70 13.8
2005-01-25 08:46:26 51°18.789 2°51.738 69.6 11.6 70 13.7
2005-01-25 08:46:31 51°18.795 2°51.765 69.8 11.6 70 13.4
2005-01-25 08:46:36 51°18.801 2°51.786 70.2 11.6 70 13.6
2005-01-25 08:46:41 51°18.806 2°51.813 70.1 11.6 67 13.5
2005-01-25 08:46:45 51°18.811 2°51.832 70.4 11.6 67 13.3
2005-01-25 08:46:51 51°18.818 2°51.861 69.5 11.5 68 13.3
2005-01-25 08:46:56 51°18.823 2°51.882 70 11.5 68 13.3
2005-01-25 08:47:01 51°18.829 2°51.907 69.8 11.7 69 13.5
2005-01-25 08:47:06 51°18.835 2°51.931 69.5 11.7 70 13.7
2005-01-25 08:47:11 51°18.841 2°51.957 69.9 11.6 70 13.5
2005-01-25 08:47:16 51°18.847 2°51.979 69.8 11.6 70 13.5
2005-01-25 08:47:20 51°18.851 2°52.001 69.5 11.6 70 13.5
2005-01-25 08:47:25 51°18.858 2°52.024 69.5 11.6 69 13.4
2005-01-25 08:47:31 51°18.864 2°52.053 67.8 11.6 67 13.4
2005-01-25 08:47:36 51°18.87 2°52.074 69.5 11.6 67 13.3
2005-01-25 08:47:41 51°18.876 2°52.098 69.2 11.6 67 13.2
2005-01-25 08:47:45 51°18.881 2°52.12 68.6 11.6 67 13.2
2005-01-25 08:47:51 51°18.888 2°52.146 70.2 11.5 69 13.3
2005-01-25 08:47:56 51°18.893 2°52.169 68.6 11.5 69 13.1
2005-01-25 08:48:00 51°18.898 2°52.189 69.4 11.5 69 13.1
2005-01-25 08:48:05 51°18.904 2°52.215 68.9 11.5 69 13
2005-01-25 08:48:10 51°18.91 2°52.237 69.1 11.5 70 12.8
2005-01-25 08:48:16 51°18.917 2°52.265 70 11.6 69 13
2005-01-25 08:48:21 51°18.923 2°52.291 69.6 11.5 68 12.8
2005-01-25 08:48:25 51°18.927 2°52.31 69.8 11.5 71 13
2005-01-25 08:48:31 51°18.935 2°52.338 69.5 11.6 68 13
2005-01-25 08:48:36 51°18.94 2°52.361 68.9 11.6 68 12.9
2005-01-25 08:48:41 51°18.946 2°52.384 69.5 11.6 68 12.8
2005-01-25 08:48:45 51°18.951 2°52.406 69.6 11.7 70 12.9
2005-01-25 08:48:51 51°18.958 2°52.434 69.5 11.7 70 12.9
2005-01-25 08:48:56 51°18.963 2°52.455 68.9 11.7 70 12.9
2005-01-25 08:49:01 51°18.97 2°52.482 69.5 11.7 70 12.7
2005-01-25 08:49:06 51°18.975 2°52.505 69.4 11.7 70 12.6
2005-01-25 08:49:11 51°18.982 2°52.53 70.2 11.7 68 12.9
2005-01-25 08:49:16 51°18.987 2°52.552 69.1 11.7 68 12.7
2005-01-25 08:49:21 51°18.994 2°52.579 69.7 11.6 67 12.5
2005-01-25 08:49:26 51°18.999 2°52.602 69.3 11.8 67 12.4
2005-01-25 08:49:31 51°19.006 2°52.627 69.7 11.8 67 12.4
2005-01-25 08:49:36 51°19.011 2°52.649 69.2 11.8 67 12.4
2005-01-25 08:49:41 51°19.017 2°52.673 69.1 11.6 69 12.5
2005-01-25 08:49:46 51°19.023 2°52.697 69.4 11.6 69 12.5
2005-01-25 08:49:51 51°19.029 2°52.724 69.3 11.6 69 12.4
2005-01-25 08:49:56 51°19.035 2°52.745 69.9 11.6 69 12.3
2005-01-25 08:50:01 51°19.04 2°52.769 68.9 11.6 69 12.5
2005-01-25 08:50:05 51°19.045 2°52.791 69.6 11.6 69 12.3
2005-01-25 08:50:11 51°19.051 2°52.818 70.4 11.6 68 12.3
2005-01-25 08:50:16 51°19.058 2°52.842 70.4 11.8 71 12.3
2005-01-25 08:50:21 51°19.065 2°52.869 69.4 11.8 71 12.4
2005-01-25 08:50:25 51°19.069 2°52.889 69.2 11.8 69 12.4
2005-01-25 08:50:31 51°19.077 2°52.918 70.3 11.8 67 12.4
2005-01-25 08:50:36 51°19.081 2°52.94 70 11.8 67 12.4
2005-01-25 08:50:41 51°19.088 2°52.967 70 11.9 69 12.2
2005-01-25 08:50:46 51°19.093 2°52.99 69.8 11.9 70 12.4
2005-01-25 08:50:51 51°19.099 2°53.014 69.7 11.9 70 12.3
2005-01-25 08:50:56 51°19.105 2°53.038 70.3 11.9 67 12.3
2005-01-25 08:51:01 51°19.111 2°53.065 69.4 11.8 68 12.4
2005-01-25 08:51:06 51°19.117 2°53.088 69.9 11.8 68 12.2
2005-01-25 08:51:11 51°19.123 2°53.114 69.2 11.8 68 12.1
2005-01-25 08:51:16 51°19.129 2°53.136 69.5 11.8 68 12.1
2005-01-25 08:51:21 51°19.135 2°53.162 68.9 11.8 68 12.1
2005-01-25 08:51:25 51°19.14 2°53.182 69.3 11.8 70 12.2
2005-01-25 08:51:31 51°19.146 2°53.209 69.5 11.8 69 12.1
2005-01-25 08:51:36 51°19.152 2°53.233 69.5 11.7 69 12.1
2005-01-25 08:51:41 51°19.158 2°53.258 69.5 11.6 68 12.1
2005-01-25 08:51:46 51°19.164 2°53.282 70 11.7 69 12
2005-01-25 08:51:51 51°19.17 2°53.309 68.9 11.6 71 12
2005-01-25 08:51:56 51°19.174 2°53.331 69.9 11.6 71 12.1
2005-01-25 08:52:00 51°19.179 2°53.351 70.9 11.8 72 12.1
2005-01-25 08:52:05 51°19.184 2°53.378 71.5 11.8 72 12
2005-01-25 08:52:10 51°19.189 2°53.401 71.7 11.6 72 12.3
2005-01-25 08:52:16 51°19.196 2°53.431 71.1 11.6 70 12.2
2005-01-25 08:52:21 51°19.201 2°53.456 70.6 11.6 70 12
2005-01-25 08:52:25 51°19.205 2°53.476 71.1 11.6 70 11.9
2005-01-25 08:52:31 51°19.211 2°53.505 71.3 11.8 71 12.2
2005-01-25 08:52:36 51°19.215 2°53.527 71.6 11.6 72 12
2005-01-25 08:52:40 51°19.219 2°53.547 72 11.7 73 12.1
2005-01-25 08:52:46 51°19.226 2°53.577 71.1 11.7 73 11.9
2005-01-25 08:52:51 51°19.232 2°53.603 71.4 11.7 74 12.2
2005-01-25 08:52:56 51°19.236 2°53.624 70.7 11.6 70 12.2
2005-01-25 08:53:01 51°19.242 2°53.651 70.9 11.6 71 12.1
2005-01-25 08:53:05 51°19.246 2°53.672 71.6 11.6 71 12.2
2005-01-25 08:53:11 51°19.251 2°53.698 71.7 11.6 72 12.2
2005-01-25 08:53:16 51°19.256 2°53.723 72.1 11.6 72 12.1
2005-01-25 08:53:21 51°19.261 2°53.747 72.2 11.5 70 11.9
2005-01-25 08:53:25 51°19.267 2°53.769 71.2 11.5 70 11.9
2005-01-25 08:53:31 51°19.273 2°53.798 71.3 11.7 71 12.1
2005-01-25 08:53:36 51°19.277 2°53.821 71.4 11.7 73 11.9
2005-01-25 08:53:41 51°19.282 2°53.848 72.3 11.8 72 11.9
2005-01-25 08:53:45 51°19.287 2°53.867 72.4 11.6 70 12.1
2005-01-25 08:53:51 51°19.292 2°53.897 71.4 11.6 70 12
2005-01-25 08:53:56 51°19.297 2°53.919 72.5 11.6 70 12.1
2005-01-25 08:54:01 51°19.302 2°53.944 71.3 11.6 73 11.9
2005-01-25 08:54:06 51°19.308 2°53.968 71.8 11.6 70 11.9
2005-01-25 08:54:11 51°19.313 2°53.995 71.5 11.7 73 12
2005-01-25 08:54:16 51°19.318 2°54.016 71.6 11.7 73 12.1
2005-01-25 08:54:21 51°19.322 2°54.041 70.4 11.6 75 12.1
2005-01-25 08:54:25 51°19.327 2°54.063 72.3 11.7 70 11.8
2005-01-25 08:54:31 51°19.333 2°54.093 71.5 11.6 72 11.9
2005-01-25 08:54:36 51°19.338 2°54.114 71.1 11.5 70 12
2005-01-25 08:54:41 51°19.343 2°54.138 71.3 11.6 72 12.1
2005-01-25 08:54:45 51°19.348 2°54.161 71.1 11.6 72 12
2005-01-25 08:54:51 51°19.354 2°54.19 71.1 11.7 72 12.2
2005-01-25 08:54:56 51°19.358 2°54.212 71.1 11.7 74 12.1
2005-01-25 08:55:00 51°19.363 2°54.234 71.9 11.7 74 11.9
2005-01-25 08:55:06 51°19.368 2°54.261 70.4 11.7 74 12
2005-01-25 08:55:11 51°19.374 2°54.286 70.9 11.5 73 11.7
2005-01-25 08:55:16 51°19.379 2°54.311 71.2 11.5 73 11.8
2005-01-25 08:55:21 51°19.385 2°54.337 71.7 11.7 71 12
2005-01-25 08:55:25 51°19.389 2°54.357 71 11.6 71 12
2005-01-25 08:55:31 51°19.395 2°54.386 71.3 11.6 73 12.1
2005-01-25 08:55:36 51°19.4 2°54.408 71.6 11.6 70 12.1
2005-01-25 08:55:41 51°19.405 2°54.436 71 11.6 70 12
2005-01-25 08:55:45 51°19.41 2°54.455 71.9 11.6 70 12.2
2005-01-25 08:55:51 51°19.415 2°54.484 70.7 11.6 68 12.2
2005-01-25 08:55:56 51°19.421 2°54.506 71.2 11.6 68 12
2005-01-25 08:56:00 51°19.424 2°54.526 70.6 11.7 73 12
2005-01-25 08:56:05 51°19.43 2°54.553 71.8 11.7 73 12
2005-01-25 08:56:10 51°19.435 2°54.575 71.6 11.7 70 11.9